sensor_id;sensor_type;location;lat;lon;timestamp;pressure;altitude;pressure_sealevel;temperature;humidity
63194;BME280;49289;51.670;5.624;2022-11-03T00:01:10;101623.22;;;17.98;50.32
63194;BME280;49289;51.670;5.624;2022-11-03T00:02:58;101620.73;;;17.91;50.77
63194;BME280;49289;51.670;5.624;2022-11-03T00:04:45;101620.64;;;17.87;50.69
63194;BME280;49289;51.670;5.624;2022-11-03T00:06:33;101621.25;;;17.71;51.12
63194;BME280;49289;51.670;5.624;2022-11-03T00:08:21;101614.35;;;17.82;50.81
63194;BME280;49289;51.670;5.624;2022-11-03T00:10:10;101607.35;;;17.98;50.23
63194;BME280;49289;51.670;5.624;2022-11-03T00:11:57;101614.16;;;17.77;50.79
63194;BME280;49289;51.670;5.624;2022-11-03T00:13:44;101596.13;;;17.63;51.06
63194;BME280;49289;51.670;5.624;2022-11-03T00:15:31;101583.42;;;17.89;50.40
63194;BME280;49289;51.670;5.624;2022-11-03T00:17:18;101603.44;;;17.76;50.84
63194;BME280;49289;51.670;5.624;2022-11-03T00:19:05;101601.77;;;17.68;50.92
63194;BME280;49289;51.670;5.624;2022-11-03T00:21:00;101586.92;;;18.01;50.04
63194;BME280;49289;51.670;5.624;2022-11-03T00:22:46;101584.59;;;17.69;50.41
63194;BME280;49289;51.670;5.624;2022-11-03T00:24:33;101598.55;;;17.86;50.39
63194;BME280;49289;51.670;5.624;2022-11-03T00:26:21;101600.17;;;17.85;50.67
63194;BME280;49289;51.670;5.624;2022-11-03T00:28:09;101584.98;;;17.56;50.83
63194;BME280;49289;51.670;5.624;2022-11-03T00:29:57;101600.78;;;17.69;50.74
63194;BME280;49289;51.670;5.624;2022-11-03T00:31:45;101592.76;;;17.99;50.04
63194;BME280;49289;51.670;5.624;2022-11-03T00:33:37;101573.16;;;17.83;50.06
63194;BME280;49289;51.670;5.624;2022-11-03T00:35:22;101579.27;;;17.72;50.25
63194;BME280;49289;51.670;5.624;2022-11-03T00:37:09;101571.38;;;18.25;49.56
63194;BME280;49289;51.670;5.624;2022-11-03T00:38:56;101573.34;;;17.59;50.84
63194;BME280;49289;51.670;5.624;2022-11-03T00:40:43;101593.25;;;18.08;49.80
63194;BME280;49289;51.670;5.624;2022-11-03T00:42:30;101559.20;;;17.67;50.32
63194;BME280;49289;51.670;5.624;2022-11-03T00:44:17;101573.86;;;17.85;50.17
63194;BME280;49289;51.670;5.624;2022-11-03T00:46:05;101571.89;;;17.50;51.05
63194;BME280;49289;51.670;5.624;2022-11-03T00:47:51;101554.16;;;17.35;51.26
63194;BME280;49289;51.670;5.624;2022-11-03T00:49:38;101565.02;;;17.91;50.39
63194;BME280;49289;51.670;5.624;2022-11-03T00:51:26;101564.73;;;17.60;50.71
63194;BME280;49289;51.670;5.624;2022-11-03T00:53:12;101546.11;;;17.78;50.40
63194;BME280;49289;51.670;5.624;2022-11-03T00:54:59;101551.33;;;18.24;49.87
63194;BME280;49289;51.670;5.624;2022-11-03T00:56:46;101548.90;;;18.43;49.19
63194;BME280;49289;51.670;5.624;2022-11-03T00:58:34;101520.64;;;18.23;49.25
63194;BME280;49289;51.670;5.624;2022-11-03T01:00:23;101545.80;;;18.11;50.01
63194;BME280;49289;51.670;5.624;2022-11-03T01:02:10;101535.18;;;17.75;50.27
63194;BME280;49289;51.670;5.624;2022-11-03T01:03:57;101526.35;;;18.00;49.88
63194;BME280;49289;51.670;5.624;2022-11-03T01:05:44;101536.99;;;18.15;49.82
63194;BME280;49289;51.670;5.624;2022-11-03T01:07:32;101532.37;;;18.13;49.73
63194;BME280;49289;51.670;5.624;2022-11-03T01:09:21;101502.70;;;18.16;49.81
63194;BME280;49289;51.670;5.624;2022-11-03T01:11:10;101525.31;;;17.72;50.60
63194;BME280;49289;51.670;5.624;2022-11-03T01:12:56;101521.36;;;17.77;50.86
63194;BME280;49289;51.670;5.624;2022-11-03T01:14:44;101524.48;;;17.76;50.74
63194;BME280;49289;51.670;5.624;2022-11-03T01:16:32;101526.58;;;17.63;51.18
63194;BME280;49289;51.670;5.624;2022-11-03T01:18:19;101518.92;;;18.05;50.25
63194;BME280;49289;51.670;5.624;2022-11-03T01:20:09;101519.27;;;18.33;49.72
63194;BME280;49289;51.670;5.624;2022-11-03T01:21:56;101515.07;;;18.27;50.00
63194;BME280;49289;51.670;5.624;2022-11-03T01:23:43;101515.99;;;18.20;50.08
63194;BME280;49289;51.670;5.624;2022-11-03T01:25:31;101495.41;;;18.37;49.46
63194;BME280;49289;51.670;5.624;2022-11-03T01:27:20;101491.17;;;18.17;49.46
63194;BME280;49289;51.670;5.624;2022-11-03T01:29:07;101509.27;;;18.32;49.98
63194;BME280;49289;51.670;5.624;2022-11-03T01:30:56;101502.69;;;18.43;49.56
63194;BME280;49289;51.670;5.624;2022-11-03T01:32:44;101504.98;;;18.29;49.69
63194;BME280;49289;51.670;5.624;2022-11-03T01:34:32;101481.41;;;18.10;50.18
63194;BME280;49289;51.670;5.624;2022-11-03T01:36:20;101481.89;;;18.14;50.23
63194;BME280;49289;51.670;5.624;2022-11-03T01:38:09;101478.61;;;17.74;51.17
63194;BME280;49289;51.670;5.624;2022-11-03T01:39:57;101489.02;;;17.90;51.01
63194;BME280;49289;51.670;5.624;2022-11-03T01:41:46;101491.46;;;17.91;50.69
63194;BME280;49289;51.670;5.624;2022-11-03T01:43:34;101481.20;;;18.02;50.67
63194;BME280;49289;51.670;5.624;2022-11-03T01:45:22;101478.78;;;18.08;50.05
63194;BME280;49289;51.670;5.624;2022-11-03T01:47:11;101482.34;;;17.88;50.46
63194;BME280;49289;51.670;5.624;2022-11-03T01:48:59;101476.19;;;17.91;50.81
63194;BME280;49289;51.670;5.624;2022-11-03T01:50:46;101460.70;;;17.94;50.54
63194;BME280;49289;51.670;5.624;2022-11-03T01:52:35;101455.28;;;18.08;50.19
63194;BME280;49289;51.670;5.624;2022-11-03T01:54:22;101455.41;;;17.82;50.71
63194;BME280;49289;51.670;5.624;2022-11-03T01:56:11;101468.64;;;18.20;50.21
63194;BME280;49289;51.670;5.624;2022-11-03T01:57:59;101442.52;;;17.94;50.54
63194;BME280;49289;51.670;5.624;2022-11-03T01:59:46;101467.12;;;18.26;50.28
63194;BME280;49289;51.670;5.624;2022-11-03T02:01:33;101463.43;;;17.97;50.97
63194;BME280;49289;51.670;5.624;2022-11-03T02:03:20;101440.67;;;17.84;51.13
63194;BME280;49289;51.670;5.624;2022-11-03T02:05:07;101455.98;;;18.14;50.38
63194;BME280;49289;51.670;5.624;2022-11-03T02:06:56;101452.38;;;18.38;50.06
63194;BME280;49289;51.670;5.624;2022-11-03T02:08:45;101456.19;;;18.21;50.36
63194;BME280;49289;51.670;5.624;2022-11-03T02:10:32;101445.37;;;17.99;51.05
63194;BME280;49289;51.670;5.624;2022-11-03T02:12:20;101457.63;;;18.09;50.84
63194;BME280;49289;51.670;5.624;2022-11-03T02:14:08;101451.24;;;17.94;50.90
63194;BME280;49289;51.670;5.624;2022-11-03T02:15:55;101427.81;;;17.94;50.80
63194;BME280;49289;51.670;5.624;2022-11-03T02:17:43;101450.63;;;17.82;51.59
63194;BME280;49289;51.670;5.624;2022-11-03T02:19:31;101425.28;;;18.12;50.77
63194;BME280;49289;51.670;5.624;2022-11-03T02:21:20;101434.80;;;17.85;51.12
63194;BME280;49289;51.670;5.624;2022-11-03T02:23:19;101440.37;;;18.36;50.40
63194;BME280;49289;51.670;5.624;2022-11-03T02:25:09;101425.78;;;18.38;50.18
63194;BME280;49289;51.670;5.624;2022-11-03T02:26:54;101429.31;;;18.19;50.50
63194;BME280;49289;51.670;5.624;2022-11-03T02:28:42;101413.91;;;18.01;50.83
63194;BME280;49289;51.670;5.624;2022-11-03T02:30:37;101428.97;;;18.09;51.23
63194;BME280;49289;51.670;5.624;2022-11-03T02:32:20;101407.06;;;17.74;51.41
63194;BME280;49289;51.670;5.624;2022-11-03T02:34:10;101426.27;;;17.87;51.74
63194;BME280;49289;51.670;5.624;2022-11-03T02:35:57;101419.41;;;18.08;51.08
63194;BME280;49289;51.670;5.624;2022-11-03T02:37:45;101416.91;;;17.81;51.55
63194;BME280;49289;51.670;5.624;2022-11-03T02:39:30;101397.33;;;17.55;52.12
63194;BME280;49289;51.670;5.624;2022-11-03T02:41:18;101395.29;;;17.90;51.30
63194;BME280;49289;51.670;5.624;2022-11-03T02:43:06;101388.36;;;17.89;51.30
63194;BME280;49289;51.670;5.624;2022-11-03T02:44:56;101389.15;;;18.02;51.54
63194;BME280;49289;51.670;5.624;2022-11-03T02:46:44;101400.73;;;17.89;51.86
63194;BME280;49289;51.670;5.624;2022-11-03T02:48:30;101382.91;;;18.16;51.10
63194;BME280;49289;51.670;5.624;2022-11-03T02:50:17;101384.18;;;17.76;52.04
63194;BME280;49289;51.670;5.624;2022-11-03T02:52:28;101364.61;;;17.97;51.41
63194;BME280;49289;51.670;5.624;2022-11-03T02:54:01;101372.74;;;18.02;51.50
63194;BME280;49289;51.670;5.624;2022-11-03T02:55:47;101374.39;;;18.01;51.19
63194;BME280;49289;51.670;5.624;2022-11-03T02:57:34;101369.49;;;18.08;51.21
63194;BME280;49289;51.670;5.624;2022-11-03T02:59:22;101361.73;;;17.99;51.70
63194;BME280;49289;51.670;5.624;2022-11-03T03:01:11;101382.82;;;18.28;51.51
63194;BME280;49289;51.670;5.624;2022-11-03T03:03:00;101355.72;;;17.81;52.39
63194;BME280;49289;51.670;5.624;2022-11-03T03:04:47;101356.64;;;17.59;53.28
63194;BME280;49289;51.670;5.624;2022-11-03T03:06:35;101370.19;;;17.98;52.43
63194;BME280;49289;51.670;5.624;2022-11-03T03:08:21;101370.25;;;18.31;51.37
63194;BME280;49289;51.670;5.624;2022-11-03T03:10:10;101369.00;;;18.08;51.76
63194;BME280;49289;51.670;5.624;2022-11-03T03:11:58;101362.44;;;18.54;50.88
63194;BME280;49289;51.670;5.624;2022-11-03T03:13:46;101367.46;;;18.52;50.90
63194;BME280;49289;51.670;5.624;2022-11-03T03:15:35;101363.66;;;18.39;51.08
63194;BME280;49289;51.670;5.624;2022-11-03T03:17:22;101359.11;;;18.18;51.85
63194;BME280;49289;51.670;5.624;2022-11-03T03:19:11;101346.95;;;17.99;52.09
63194;BME280;49289;51.670;5.624;2022-11-03T03:21:00;101335.63;;;18.05;52.31
63194;BME280;49289;51.670;5.624;2022-11-03T03:22:48;101331.08;;;17.98;52.29
63194;BME280;49289;51.670;5.624;2022-11-03T03:24:37;101329.66;;;17.84;52.69
63194;BME280;49289;51.670;5.624;2022-11-03T03:26:27;101338.33;;;18.12;52.37
63194;BME280;49289;51.670;5.624;2022-11-03T03:28:13;101316.14;;;18.41;51.36
63194;BME280;49289;51.670;5.624;2022-11-03T03:30:00;101323.43;;;17.53;53.07
63194;BME280;49289;51.670;5.624;2022-11-03T03:31:47;101320.40;;;18.00;52.52
63194;BME280;49289;51.670;5.624;2022-11-03T03:33:33;101320.00;;;18.01;52.41
63194;BME280;49289;51.670;5.624;2022-11-03T03:35:21;101316.86;;;17.71;53.01
63194;BME280;49289;51.670;5.624;2022-11-03T03:37:09;101336.09;;;18.13;52.61
63194;BME280;49289;51.670;5.624;2022-11-03T03:38:57;101315.22;;;18.40;51.51
63194;BME280;49289;51.670;5.624;2022-11-03T03:40:45;101327.95;;;18.45;51.72
63194;BME280;49289;51.670;5.624;2022-11-03T03:42:33;101309.05;;;18.20;52.34
63194;BME280;49289;51.670;5.624;2022-11-03T03:44:21;101318.77;;;18.15;52.42
63194;BME280;49289;51.670;5.624;2022-11-03T03:46:09;101319.44;;;18.23;52.32
63194;BME280;49289;51.670;5.624;2022-11-03T03:47:56;101312.30;;;18.16;52.43
63194;BME280;49289;51.670;5.624;2022-11-03T03:49:44;101320.95;;;18.24;52.24
63194;BME280;49289;51.670;5.624;2022-11-03T03:51:32;101300.80;;;18.32;51.77
63194;BME280;49289;51.670;5.624;2022-11-03T03:53:18;101303.69;;;18.07;52.51
63194;BME280;49289;51.670;5.624;2022-11-03T03:55:07;101310.52;;;18.32;52.21
63194;BME280;49289;51.670;5.624;2022-11-03T03:56:57;101290.75;;;18.27;51.83
63194;BME280;49289;51.670;5.624;2022-11-03T03:58:42;101286.62;;;18.48;51.62
63194;BME280;49289;51.670;5.624;2022-11-03T04:00:29;101288.72;;;18.16;52.34
63194;BME280;49289;51.670;5.624;2022-11-03T04:02:16;101301.93;;;18.06;52.61
63194;BME280;49289;51.670;5.624;2022-11-03T04:04:03;101279.98;;;18.21;52.14
63194;BME280;49289;51.670;5.624;2022-11-03T04:05:52;101296.20;;;18.11;53.15
63194;BME280;49289;51.670;5.624;2022-11-03T04:07:40;101276.02;;;18.24;52.36
63194;BME280;49289;51.670;5.624;2022-11-03T04:09:29;101284.97;;;18.49;52.05
63194;BME280;49289;51.670;5.624;2022-11-03T04:11:17;101286.62;;;18.09;52.82
63194;BME280;49289;51.670;5.624;2022-11-03T04:14:53;101284.97;;;18.40;52.28
63194;BME280;49289;51.670;5.624;2022-11-03T04:16:41;101277.90;;;18.43;52.24
63194;BME280;49289;51.670;5.624;2022-11-03T04:18:29;101284.53;;;18.28;52.52
63194;BME280;49289;51.670;5.624;2022-11-03T04:20:19;101271.22;;;17.94;53.01
63194;BME280;49289;51.670;5.624;2022-11-03T04:22:08;101292.62;;;18.50;52.19
63194;BME280;49289;51.670;5.624;2022-11-03T04:23:56;101293.77;;;18.54;51.79
63194;BME280;49289;51.670;5.624;2022-11-03T04:25:46;101272.67;;;18.55;51.76
63194;BME280;49289;51.670;5.624;2022-11-03T04:27:45;101273.05;;;18.46;51.86
63194;BME280;49289;51.670;5.624;2022-11-03T04:29:22;101275.87;;;18.46;52.24
63194;BME280;49289;51.670;5.624;2022-11-03T04:31:13;101285.05;;;18.73;51.44
63194;BME280;49289;51.670;5.624;2022-11-03T04:33:01;101284.70;;;18.39;52.39
63194;BME280;49289;51.670;5.624;2022-11-03T04:34:52;101259.89;;;18.05;53.32
63194;BME280;49289;51.670;5.624;2022-11-03T04:36:41;101260.02;;;17.72;53.92
63194;BME280;49289;51.670;5.624;2022-11-03T04:38:20;101272.73;;;18.22;53.19
63194;BME280;49289;51.670;5.624;2022-11-03T04:40:17;101269.06;;;18.52;52.37
63194;BME280;49289;51.670;5.624;2022-11-03T04:42:05;101252.98;;;18.23;52.66
63194;BME280;49289;51.670;5.624;2022-11-03T04:43:53;101253.92;;;18.58;51.87
63194;BME280;49289;51.670;5.624;2022-11-03T04:45:41;101268.56;;;18.58;52.23
63194;BME280;49289;51.670;5.624;2022-11-03T04:47:33;101264.73;;;18.37;52.83
63194;BME280;49289;51.670;5.624;2022-11-03T04:49:25;101248.96;;;18.18;53.17
63194;BME280;49289;51.670;5.624;2022-11-03T04:51:19;101252.19;;;18.47;52.66
63194;BME280;49289;51.670;5.624;2022-11-03T04:53:10;101257.14;;;18.69;52.10
63194;BME280;49289;51.670;5.624;2022-11-03T04:54:43;101240.42;;;18.55;52.24
63194;BME280;49289;51.670;5.624;2022-11-03T04:56:31;101256.41;;;18.51;52.52
63194;BME280;49289;51.670;5.624;2022-11-03T04:58:21;101241.78;;;18.05;53.47
63194;BME280;49289;51.670;5.624;2022-11-03T05:00:09;101249.38;;;18.18;53.35
63194;BME280;49289;51.670;5.624;2022-11-03T05:01:56;101243.96;;;18.17;53.55
63194;BME280;49289;51.670;5.624;2022-11-03T05:03:45;101223.22;;;18.49;52.36
63194;BME280;49289;51.670;5.624;2022-11-03T05:05:33;101246.33;;;18.43;52.87
63194;BME280;49289;51.670;5.624;2022-11-03T05:07:27;101244.71;;;18.12;53.59
63194;BME280;49289;51.670;5.624;2022-11-03T05:09:16;101234.68;;;17.99;54.57
63194;BME280;49289;51.670;5.624;2022-11-03T05:11:03;101222.28;;;17.74;54.67
63194;BME280;49289;51.670;5.624;2022-11-03T05:12:49;101234.66;;;18.07;54.25
63194;BME280;49289;51.670;5.624;2022-11-03T05:14:37;101232.30;;;18.29;54.00
63194;BME280;49289;51.670;5.624;2022-11-03T05:16:25;101227.34;;;17.87;54.63
63194;BME280;49289;51.670;5.624;2022-11-03T05:18:17;101224.08;;;18.15;54.21
63194;BME280;49289;51.670;5.624;2022-11-03T05:20:04;101220.23;;;18.49;53.43
63194;BME280;49289;51.670;5.624;2022-11-03T05:21:53;101202.38;;;18.57;52.92
63194;BME280;49289;51.670;5.624;2022-11-03T05:23:42;101223.67;;;18.82;52.51
63194;BME280;49289;51.670;5.624;2022-11-03T05:25:37;101218.00;;;18.00;54.58
63194;BME280;49289;51.670;5.624;2022-11-03T05:27:25;101196.71;;;18.43;53.54
63194;BME280;49289;51.670;5.624;2022-11-03T05:29:14;101202.30;;;18.29;53.87
63194;BME280;49289;51.670;5.624;2022-11-03T05:31:03;101198.71;;;18.22;54.12
63194;BME280;49289;51.670;5.624;2022-11-03T05:32:52;101204.70;;;18.07;54.95
63194;BME280;49289;51.670;5.624;2022-11-03T05:34:43;101184.63;;;18.31;54.21
63194;BME280;49289;51.670;5.624;2022-11-03T05:36:31;101192.69;;;18.47;54.05
63194;BME280;49289;51.670;5.624;2022-11-03T05:38:21;101193.06;;;18.64;53.63
63194;BME280;49289;51.670;5.624;2022-11-03T05:40:14;101189.61;;;18.59;53.57
63194;BME280;49289;51.670;5.624;2022-11-03T05:41:59;101191.27;;;18.53;53.88
63194;BME280;49289;51.670;5.624;2022-11-03T05:43:49;101188.56;;;18.76;53.33
63194;BME280;49289;51.670;5.624;2022-11-03T05:45:36;101186.47;;;18.61;53.88
63194;BME280;49289;51.670;5.624;2022-11-03T05:47:24;101184.07;;;18.54;53.93
63194;BME280;49289;51.670;5.624;2022-11-03T05:49:13;101167.17;;;18.59;53.59
63194;BME280;49289;51.670;5.624;2022-11-03T05:51:01;101181.95;;;18.84;53.32
63194;BME280;49289;51.670;5.624;2022-11-03T05:52:50;101161.73;;;18.78;53.19
63194;BME280;49289;51.670;5.624;2022-11-03T05:54:39;101172.13;;;18.79;53.39
63194;BME280;49289;51.670;5.624;2022-11-03T05:56:27;101178.51;;;18.70;53.46
63194;BME280;49289;51.670;5.624;2022-11-03T05:58:18;101174.65;;;18.85;53.20
63194;BME280;49289;51.670;5.624;2022-11-03T06:00:06;101166.09;;;18.75;53.45
63194;BME280;49289;51.670;5.624;2022-11-03T06:01:53;101166.75;;;18.52;54.07
63194;BME280;49289;51.670;5.624;2022-11-03T06:03:41;101159.27;;;18.67;53.74
63194;BME280;49289;51.670;5.624;2022-11-03T06:05:29;101161.08;;;18.57;54.01
63194;BME280;49289;51.670;5.624;2022-11-03T06:07:18;101145.28;;;18.27;54.59
63194;BME280;49289;51.670;5.624;2022-11-03T06:09:08;101144.73;;;18.46;53.99
63194;BME280;49289;51.670;5.624;2022-11-03T06:10:54;101149.94;;;18.65;53.84
63194;BME280;49289;51.670;5.624;2022-11-03T06:12:40;101158.05;;;18.61;53.74
63194;BME280;49289;51.670;5.624;2022-11-03T06:14:29;101139.08;;;18.52;54.03
63194;BME280;49289;51.670;5.624;2022-11-03T06:16:30;101153.78;;;18.51;54.04
63194;BME280;49289;51.670;5.624;2022-11-03T06:18:09;101145.03;;;18.65;53.92
63194;BME280;49289;51.670;5.624;2022-11-03T06:19:52;101145.42;;;18.61;53.95
63194;BME280;49289;51.670;5.624;2022-11-03T06:21:41;101144.55;;;18.66;53.78
63194;BME280;49289;51.670;5.624;2022-11-03T06:23:28;101146.72;;;18.45;54.35
63194;BME280;49289;51.670;5.624;2022-11-03T06:25:21;101128.71;;;18.36;54.30
63194;BME280;49289;51.670;5.624;2022-11-03T06:27:10;101142.75;;;18.02;55.42
63194;BME280;49289;51.670;5.624;2022-11-03T06:28:58;101130.30;;;18.24;54.61
63194;BME280;49289;51.670;5.624;2022-11-03T06:30:46;101137.38;;;18.21;54.75
63194;BME280;49289;51.670;5.624;2022-11-03T06:32:35;101142.87;;;18.43;54.23
63194;BME280;49289;51.670;5.624;2022-11-03T06:34:32;101136.41;;;18.45;54.17
63194;BME280;49289;51.670;5.624;2022-11-03T06:36:23;101142.33;;;18.53;54.04
63194;BME280;49289;51.670;5.624;2022-11-03T06:38:13;101136.13;;;18.48;54.17
63194;BME280;49289;51.670;5.624;2022-11-03T06:40:01;101112.63;;;18.50;54.01
63194;BME280;49289;51.670;5.624;2022-11-03T06:41:46;101108.92;;;18.35;54.17
63194;BME280;49289;51.670;5.624;2022-11-03T06:43:36;101120.26;;;18.32;54.49
63194;BME280;49289;51.670;5.624;2022-11-03T06:45:25;101127.67;;;18.40;54.41
63194;BME280;49289;51.670;5.624;2022-11-03T06:47:17;101128.14;;;18.38;54.61
63194;BME280;49289;51.670;5.624;2022-11-03T06:49:15;101112.02;;;18.24;54.63
63194;BME280;49289;51.670;5.624;2022-11-03T06:50:49;101112.50;;;17.97;55.66
63194;BME280;49289;51.670;5.624;2022-11-03T06:52:40;101109.09;;;18.07;55.40
63194;BME280;49289;51.670;5.624;2022-11-03T06:54:27;101106.78;;;18.24;54.97
63194;BME280;49289;51.670;5.624;2022-11-03T06:56:19;101110.61;;;18.24;55.01
63194;BME280;49289;51.670;5.624;2022-11-03T06:58:12;101104.32;;;18.39;54.68
63194;BME280;49289;51.670;5.624;2022-11-03T06:59:55;101098.94;;;18.45;54.56
63194;BME280;49289;51.670;5.624;2022-11-03T07:01:43;101114.22;;;18.45;54.81
63194;BME280;49289;51.670;5.624;2022-11-03T07:03:32;101114.00;;;18.63;54.36
63194;BME280;49289;51.670;5.624;2022-11-03T07:05:26;101112.66;;;18.69;54.29
63194;BME280;49289;51.670;5.624;2022-11-03T07:07:12;101096.16;;;18.57;54.41
63194;BME280;49289;51.670;5.624;2022-11-03T07:09:00;101093.23;;;18.48;54.56
63194;BME280;49289;51.670;5.624;2022-11-03T07:10:47;101107.54;;;18.56;54.52
63194;BME280;49289;51.670;5.624;2022-11-03T07:12:34;101114.94;;;18.49;54.94
63194;BME280;49289;51.670;5.624;2022-11-03T07:14:23;101114.16;;;18.61;54.70
63194;BME280;49289;51.670;5.624;2022-11-03T07:16:15;101110.88;;;18.57;54.70
63194;BME280;49289;51.670;5.624;2022-11-03T07:18:01;101094.47;;;18.47;54.65
63194;BME280;49289;51.670;5.624;2022-11-03T07:19:48;101095.88;;;18.46;54.83
63194;BME280;49289;51.670;5.624;2022-11-03T07:21:43;101102.23;;;18.57;54.65
63194;BME280;49289;51.670;5.624;2022-11-03T07:23:28;101096.70;;;18.69;54.09
63194;BME280;49289;51.670;5.624;2022-11-03T07:25:20;101111.66;;;18.53;54.97
63194;BME280;49289;51.670;5.624;2022-11-03T07:27:11;101087.98;;;18.71;54.34
63194;BME280;49289;51.670;5.624;2022-11-03T07:28:55;101099.88;;;18.84;54.37
63194;BME280;49289;51.670;5.624;2022-11-03T07:30:42;101096.97;;;18.84;54.13
63194;BME280;49289;51.670;5.624;2022-11-03T07:32:30;101082.12;;;18.74;54.31
63194;BME280;49289;51.670;5.624;2022-11-03T07:34:22;101096.34;;;18.67;54.64
63194;BME280;49289;51.670;5.624;2022-11-03T07:36:10;101099.41;;;18.66;54.61
63194;BME280;49289;51.670;5.624;2022-11-03T07:37:59;101092.39;;;18.47;54.90
63194;BME280;49289;51.670;5.624;2022-11-03T07:39:46;101094.77;;;18.33;55.08
63194;BME280;49289;51.670;5.624;2022-11-03T07:41:34;101088.90;;;18.61;54.61
63194;BME280;49289;51.670;5.624;2022-11-03T07:43:23;101085.67;;;18.72;54.27
63194;BME280;49289;51.670;5.624;2022-11-03T07:45:28;101069.83;;;18.67;54.53
63194;BME280;49289;51.670;5.624;2022-11-03T07:46:59;101077.53;;;18.73;54.31
63194;BME280;49289;51.670;5.624;2022-11-03T07:48:48;101066.62;;;18.46;54.61
63194;BME280;49289;51.670;5.624;2022-11-03T07:50:37;101080.34;;;18.79;54.25
63194;BME280;49289;51.670;5.624;2022-11-03T07:52:25;101072.53;;;18.85;53.98
63194;BME280;49289;51.670;5.624;2022-11-03T07:54:15;101067.94;;;19.06;53.41
63194;BME280;49289;51.670;5.624;2022-11-03T07:56:01;101062.11;;;18.90;53.56
63194;BME280;49289;51.670;5.624;2022-11-03T07:57:48;101065.93;;;18.90;53.44
63194;BME280;49289;51.670;5.624;2022-11-03T07:59:37;101077.51;;;18.61;54.41
63194;BME280;49289;51.670;5.624;2022-11-03T08:01:42;101069.30;;;18.64;54.57
63194;BME280;49289;51.670;5.624;2022-11-03T08:03:34;101062.44;;;18.76;54.27
63194;BME280;49289;51.670;5.624;2022-11-03T08:05:21;101069.33;;;18.62;54.13
63194;BME280;49289;51.670;5.624;2022-11-03T08:07:08;101062.41;;;18.82;54.02
63194;BME280;49289;51.670;5.624;2022-11-03T08:08:55;101085.48;;;18.71;54.25
63194;BME280;49289;51.670;5.624;2022-11-03T08:10:42;101083.72;;;18.77;53.85
63194;BME280;49289;51.670;5.624;2022-11-03T08:12:29;101063.13;;;18.79;54.06
63194;BME280;49289;51.670;5.624;2022-11-03T08:14:17;101080.63;;;18.97;53.65
63194;BME280;49289;51.670;5.624;2022-11-03T08:16:05;101076.48;;;19.12;53.40
63194;BME280;49289;51.670;5.624;2022-11-03T08:17:54;101073.53;;;19.08;53.64
63194;BME280;49289;51.670;5.624;2022-11-03T08:19:42;101068.74;;;19.28;53.32
63194;BME280;49289;51.670;5.624;2022-11-03T08:21:30;101062.98;;;19.26;53.39
63194;BME280;49289;51.670;5.624;2022-11-03T08:23:18;101045.03;;;19.22;52.93
63194;BME280;49289;51.670;5.624;2022-11-03T08:25:06;101038.70;;;19.27;52.72
63194;BME280;49289;51.670;5.624;2022-11-03T08:26:54;101049.70;;;19.04;53.52
63194;BME280;49289;51.670;5.624;2022-11-03T08:28:42;101044.56;;;19.34;53.00
63194;BME280;49289;51.670;5.624;2022-11-03T08:30:30;101032.95;;;19.39;52.99
63194;BME280;49289;51.670;5.624;2022-11-03T08:32:18;101030.41;;;19.51;52.15
63194;BME280;49289;51.670;5.624;2022-11-03T08:34:06;101026.91;;;19.42;52.58
63194;BME280;49289;51.670;5.624;2022-11-03T08:35:54;101024.71;;;19.09;52.79
63194;BME280;49289;51.670;5.624;2022-11-03T08:37:42;101017.31;;;19.19;52.83
63194;BME280;49289;51.670;5.624;2022-11-03T08:39:30;101013.49;;;19.49;52.11
63194;BME280;49289;51.670;5.624;2022-11-03T08:41:19;100990.59;;;19.39;51.63
63194;BME280;49289;51.670;5.624;2022-11-03T08:43:07;101005.34;;;19.67;51.84
63194;BME280;49289;51.670;5.624;2022-11-03T08:44:56;100998.59;;;19.57;52.06
63194;BME280;49289;51.670;5.624;2022-11-03T08:46:44;100994.88;;;19.31;52.25
63194;BME280;49289;51.670;5.624;2022-11-03T08:48:32;100978.64;;;19.62;51.83
63194;BME280;49289;51.670;5.624;2022-11-03T08:50:20;100961.44;;;19.42;52.18
63194;BME280;49289;51.670;5.624;2022-11-03T08:52:07;100977.20;;;19.49;51.92
63194;BME280;49289;51.670;5.624;2022-11-03T08:53:54;100954.73;;;19.68;51.79
63194;BME280;49289;51.670;5.624;2022-11-03T08:55:42;100961.89;;;19.48;52.48
63194;BME280;49289;51.670;5.624;2022-11-03T08:57:30;100958.41;;;19.83;51.79
63194;BME280;49289;51.670;5.624;2022-11-03T08:59:18;100957.74;;;19.51;51.62
63194;BME280;49289;51.670;5.624;2022-11-03T09:01:06;100948.52;;;19.77;51.47
63194;BME280;49289;51.670;5.624;2022-11-03T09:02:55;100946.34;;;19.87;51.43
63194;BME280;49289;51.670;5.624;2022-11-03T09:04:28;100933.38;;;19.80;50.70
63194;BME280;49289;51.670;5.624;2022-11-03T09:06:17;100931.44;;;20.04;50.93
63194;BME280;49289;51.670;5.624;2022-11-03T09:08:04;100915.87;;;20.08;50.71
63194;BME280;49289;51.670;5.624;2022-11-03T09:09:51;100928.94;;;20.05;50.89
63194;BME280;49289;51.670;5.624;2022-11-03T09:11:38;100922.45;;;20.36;50.16
63194;BME280;49289;51.670;5.624;2022-11-03T09:13:26;100904.81;;;20.00;50.53
63194;BME280;49289;51.670;5.624;2022-11-03T09:15:14;100922.02;;;20.24;50.40
63194;BME280;49289;51.670;5.624;2022-11-03T09:17:01;100904.40;;;20.42;50.44
63194;BME280;49289;51.670;5.624;2022-11-03T09:18:48;100888.69;;;20.27;49.75
63194;BME280;49289;51.670;5.624;2022-11-03T09:20:35;100894.38;;;20.14;50.44
63194;BME280;49289;51.670;5.624;2022-11-03T09:22:23;100865.23;;;20.20;49.95
63194;BME280;49289;51.670;5.624;2022-11-03T09:24:11;100869.81;;;20.17;49.77
63194;BME280;49289;51.670;5.624;2022-11-03T09:25:59;100882.51;;;20.49;49.75
63194;BME280;49289;51.670;5.624;2022-11-03T09:27:47;100873.52;;;20.23;49.75